Lemsford, United Kingdom
Current Conditions -  °F | °C
As of 2:20 AM on Saturday 29 Nov 2014 (Local Time) from EGGW Reporting Station
Clear Clear  
Wind Chill: 10°   Ceiling: Unl
Heat Index: 10°   Visibility: 4mi
Dew Point:   Wind: 10mph
Humidity: 94%   Direction: 100°E
Pressure: 29.74"   Gusts: NA
Location:  51.8°N, 0.21°W
Report Text: EGGW 290220Z 10009KT 7000 NSC 10/09 Q1007
Loading
Personal Weather Stations






























Interactive Weather Map New forecast layout! Learn more

10-Day Weather Forecast

Advertisements
Track Severe Weather on mobile